Taylor Fork

This weather station provides wind speed, gust or max wind speed, and wind direction at 9460 ft. near Pika Point above Sunlight Basin.  

This data can be used with temperature and precipitation data from the Carrot Basin SNOTEL site. If the data below is not displayed or up to date, view data here.

This weather station was purchased by the Friends of the Avalanche Center.

Elevation
9460ft
Jump to table bottom
Date Time Temperature
deg F
RH, % Wind Speed Wind Gust Wind Direction
01/18/20 13:00 8.0 89 17 26 S - 192
01/18/20 12:00 6.2 88 18 25 S - 185
01/18/20 11:00 5.2 87 16 25 S - 201
01/18/20 10:00 5.7 87 16 23 SW - 219
01/18/20 09:00 3.9 88 14 20 S - 195
01/18/20 08:00 3.2 88 13 22 S - 197
01/18/20 07:00 3.4 88 13 19 SW - 209
01/18/20 06:00 2.8 88 14 19 S - 202
01/18/20 05:00 2.2 88 15 19 S - 185
01/18/20 04:00 3.8 81 13 26 SW - 232
01/18/20 03:00 3.8 81 12 23 SW - 213
01/18/20 02:00 3.4 84 9 17 S - 197
01/18/20 01:00 2.8 85 10 18 S - 190
01/18/20 00:00 2.7 83 10 18 S - 175
01/17/20 23:00 3.7 79 10 17 SW - 226
01/17/20 22:00 4.5 73 13 23 W - 258
01/17/20 21:00 4.8 68 14 28 W - 258
01/17/20 20:00 4.2 74 14 29 W - 284
01/17/20 19:00 4.5 70 18 31 W - 286
01/17/20 18:00 4.5 69 15 30 W - 281
01/17/20 17:00 5.4 72 13 26 W - 289
01/17/20 16:00 7.4 60 17 31 NW - 310
01/17/20 15:00 9.4 56 12 28 NW - 314
01/17/20 14:00 10.4 84 15 29 NW - 319
01/17/20 13:00 8.6 90 14 27 NW - 317
01/17/20 12:00 9.9 91 16 33 NW - 324
01/17/20 11:00 12.6 92 12 20 W - 286
01/17/20 10:00 14.8 93 16 27 W - 281
01/17/20 09:00 14.7 93 14 27 W - 257
01/17/20 08:00 15.1 93 12 21 SW - 204
01/17/20 07:00 15.9 93 14 28 SW - 211
01/17/20 06:00 16.2 93 16 27 S - 177
01/17/20 05:00 16.5 93 15 25 SE - 152
01/17/20 04:00 16.8 93 14 28 SE - 142
01/17/20 03:00 16.9 92 14 25 SE - 146
01/17/20 02:00 17.5 87 18 33 SE - 143
01/17/20 01:00 19.2 79 17 42 SE - 128
01/17/20 00:00 18.8 83 15 30 SE - 115
01/16/20 23:00 18.2 90 15 28 SE - 128
01/16/20 22:00 19.1 78 16 27 SE - 126
01/16/20 21:00 19.3 76 17 33 SE - 128
01/16/20 20:00 19.4 77 17 29 SE - 128
01/16/20 19:00 19.2 82 19 34 SE - 125
01/16/20 18:00 17.4 94 17 28 SE - 121
01/16/20 17:00 17.7 94 18 32 SE - 133
01/16/20 16:00 17.4 92 19 38 SE - 119
01/16/20 15:00 18.5 80 17 30 SE - 142
01/16/20 14:00 17.9 77 18 30 SE - 140
01/16/20 13:00 17.9 77 17 28 SE - 136
01/16/20 12:00 17.2 79 18 29 SE - 146